ORBB/BGW METAR and TAF weather

Enter ICAO airport designator
Station Type Date Time Source
ORBB METAR 2018/07/06 01:55 UTC NOAA

ORBB 060155Z 35003KT 9999 FEW008 29/07 A2944 RMK FU FEW008 WND DATA ALSTG ESTMD


Station Type Date Time Source
ORBB Decoded METAR 2018/07/06 01:55 UTC NOAA

Baghdad, Iraq (ORBB) 33-14N 044-14E 34M
Jul 05, 2018 - 09:55 PM EDT / 2018.07.06 0155 UTC
Wind: from the N (350 degrees) at 3 MPH (3 KT):0
Visibility: greater than 7 mile(s):0
Sky conditions: mostly clear
Temperature: 84 F (29 C)
Dew Point: 44 F (7 C)
Relative Humidity: 24%
Pressure (altimeter): 29.44 in. Hg (996 hPa)
ob: ORBB 060155Z 35003KT 9999 FEW008 29/07 A2944 RMK FU FEW008 WND DATA ALSTG ESTMD
cycle: 2

Station Type Date Time Source
ORBB TAF UTC NOAA

Error!


Example: see airport list